createdAt,value
2022-08-28T00:01:53.853Z,100835.50
2022-08-28T00:04:24.226Z,100832.03
2022-08-28T00:06:54.463Z,100831.28
2022-08-28T00:09:24.662Z,100839.66
2022-08-28T00:11:55.173Z,100829.16
2022-08-28T00:14:27.094Z,100825.88
2022-08-28T00:16:59.004Z,100826.91
2022-08-28T00:19:29.272Z,100826.91
2022-08-28T00:21:59.590Z,100832.44
2022-08-28T00:24:30.208Z,100830.00
2022-08-28T00:27:18.429Z,100831.09
2022-08-28T00:29:49.233Z,100831.97
2022-08-28T00:32:23.751Z,100833.38
2022-08-28T00:34:53.843Z,100832.38
2022-08-28T00:37:24.714Z,100836.69
2022-08-28T00:39:55.086Z,100830.38
2022-08-28T00:42:26.791Z,100822.94
2022-08-28T00:44:56.763Z,100823.81
2022-08-28T00:47:28.703Z,100825.25
2022-08-28T00:49:59.441Z,100823.84
2022-08-28T00:52:29.412Z,100816.09
2022-08-28T00:55:04.267Z,100825.97
2022-08-28T00:57:37.743Z,100823.78
2022-08-28T01:00:10.655Z,100825.00
2022-08-28T01:02:42.724Z,100822.59
2022-08-28T01:05:14.822Z,100824.25
2022-08-28T01:07:45.659Z,100824.91
2022-08-28T01:10:20.009Z,100828.28
2022-08-28T01:12:51.889Z,100823.88
2022-08-28T01:15:25.313Z,100821.19
2022-08-28T01:18:05.967Z,100808.19
2022-08-28T01:20:42.817Z,100819.81
2022-08-28T01:23:21.315Z,100818.94
2022-08-28T01:25:53.787Z,100811.13
2022-08-28T01:28:24.214Z,100817.66
2022-08-28T01:30:55.497Z,100814.28
2022-08-28T01:33:28.234Z,100812.06
2022-08-28T01:35:59.618Z,100819.16
2022-08-28T01:38:29.976Z,100810.19
2022-08-28T01:41:01.605Z,100805.75
2022-08-28T01:43:32.027Z,100806.88
2022-08-28T01:46:05.007Z,100812.16
2022-08-28T01:48:37.406Z,100810.59
2022-08-28T01:51:08.162Z,100820.84
2022-08-28T01:53:39.074Z,100813.03
2022-08-28T01:56:16.537Z,100795.75
2022-08-28T01:58:48.354Z,100807.97
2022-08-28T02:01:22.589Z,100804.50
2022-08-28T02:03:53.340Z,100806.38
2022-08-28T02:06:23.541Z,100806.53
2022-08-28T02:08:55.815Z,100798.59
2022-08-28T02:11:29.731Z,100803.22
2022-08-28T02:14:00.618Z,100796.81
2022-08-28T02:16:31.729Z,100797.69
2022-08-28T02:19:03.847Z,100796.91
2022-08-28T02:21:35.830Z,100806.91
2022-08-28T02:24:06.093Z,100799.88
2022-08-28T02:26:37.993Z,100805.13
2022-08-28T02:29:08.494Z,100803.38
2022-08-28T02:31:38.859Z,100803.44
2022-08-28T02:34:11.708Z,100813.16
2022-08-28T02:36:43.619Z,100817.31
2022-08-28T02:39:13.751Z,100806.47
2022-08-28T02:41:45.579Z,100814.56
2022-08-28T02:44:15.550Z,100801.88
2022-08-28T02:46:45.876Z,100805.50
2022-08-28T02:49:15.920Z,100802.09
2022-08-28T02:51:46.389Z,100805.75
2022-08-28T02:54:16.334Z,100804.06
2022-08-28T02:56:50.354Z,100805.97
2022-08-28T02:59:20.366Z,100800.69
2022-08-28T03:01:50.786Z,100796.91
2022-08-28T03:04:20.951Z,100801.22
2022-08-28T03:06:51.421Z,100798.72
2022-08-28T03:09:21.391Z,100797.06
2022-08-28T03:11:53.821Z,100806.91
2022-08-28T03:14:24.668Z,100811.84
2022-08-28T03:16:54.955Z,100801.28
2022-08-28T03:19:26.029Z,100791.63
2022-08-28T03:21:57.227Z,100793.44
2022-08-28T03:24:26.369Z,100798.25
2022-08-28T03:26:58.649Z,100805.75
2022-08-28T03:29:29.036Z,100801.50
2022-08-28T03:31:59.834Z,100796.91
2022-08-28T03:34:30.324Z,100801.16
2022-08-28T03:37:01.584Z,100796.91
2022-08-28T03:39:32.094Z,100797.88
2022-08-28T03:42:03.939Z,100800.34
2022-08-28T03:44:34.957Z,100794.03
2022-08-28T03:47:05.358Z,100805.59
2022-08-28T03:49:35.910Z,100799.19
2022-08-28T03:52:06.442Z,100803.53
2022-08-28T03:54:36.744Z,100796.34
2022-08-28T03:57:08.279Z,100799.31
2022-08-28T03:59:38.726Z,100795.69
2022-08-28T04:02:08.802Z,100805.63
2022-08-28T04:04:39.593Z,100797.88
2022-08-28T04:07:09.635Z,100805.03
2022-08-28T04:09:40.004Z,100803.31
2022-08-28T04:12:12.070Z,100807.09
2022-08-28T04:14:42.352Z,100808.06
2022-08-28T04:17:12.475Z,100803.63
2022-08-28T04:19:43.673Z,100807.03
2022-08-28T04:22:13.638Z,100803.22
2022-08-28T04:24:43.729Z,100801.28
2022-08-28T04:27:15.387Z,100799.13
2022-08-28T04:29:45.884Z,100793.59
2022-08-28T04:32:16.145Z,100798.88
2022-08-28T04:34:46.638Z,100796.34
2022-08-28T04:37:17.009Z,100797.50
2022-08-28T04:39:47.258Z,100796.69
2022-08-28T04:42:19.144Z,100793.09
2022-08-28T04:44:49.601Z,100797.78
2022-08-28T04:47:20.271Z,100795.84
2022-08-28T04:49:50.678Z,100795.63
2022-08-28T04:52:20.866Z,100797.22
2022-08-28T04:54:51.466Z,100797.94
2022-08-28T04:57:23.078Z,100801.91
2022-08-28T04:59:53.503Z,100790.66
2022-08-28T05:02:23.636Z,100795.03
2022-08-28T05:04:54.183Z,100790.53
2022-08-28T05:07:24.174Z,100793.06
2022-08-28T05:09:55.525Z,100799.00
2022-08-28T05:12:27.357Z,100802.59
2022-08-28T05:14:57.647Z,100804.09
2022-08-28T05:17:28.025Z,100811.66
2022-08-28T05:20:02.622Z,100814.69
2022-08-28T05:22:34.165Z,100810.66
2022-08-28T05:25:04.335Z,100819.22
2022-08-28T05:27:38.442Z,100826.44
2022-08-28T05:30:10.964Z,100822.31
2022-08-28T05:32:43.368Z,100826.25
2022-08-28T05:35:14.215Z,100827.16
2022-08-28T05:37:44.665Z,100833.88
2022-08-28T05:40:15.363Z,100834.06
2022-08-28T05:42:47.936Z,100829.56
2022-08-28T05:45:18.198Z,100827.47
2022-08-28T05:47:48.512Z,100825.97
2022-08-28T05:50:18.531Z,100831.66
2022-08-28T05:52:48.725Z,100833.00
2022-08-28T05:55:19.367Z,100831.22
2022-08-28T05:57:50.901Z,100825.09
2022-08-28T06:00:21.439Z,100832.34
2022-08-28T06:02:51.675Z,100832.53
2022-08-28T06:05:23.045Z,100835.34
2022-08-28T06:07:53.107Z,100830.88
2022-08-28T06:10:23.295Z,100824.53
2022-08-28T06:12:55.714Z,100827.22
2022-08-28T06:15:27.295Z,100817.53
2022-08-28T06:17:57.918Z,100819.94
2022-08-28T06:20:28.079Z,100823.19
2022-08-28T06:22:58.959Z,100820.69
2022-08-28T06:25:29.108Z,100820.66
2022-08-28T06:28:00.877Z,100819.09
2022-08-28T06:30:31.309Z,100823.31
2022-08-28T06:33:01.586Z,100823.78
2022-08-28T06:35:32.329Z,100820.97
2022-08-28T06:38:03.903Z,100820.56
2022-08-28T06:40:34.199Z,100815.69
2022-08-28T06:43:06.226Z,100819.59
2022-08-28T06:45:37.131Z,100820.13
2022-08-28T06:48:07.905Z,100822.06
2022-08-28T06:50:41.636Z,100816.63
2022-08-28T06:53:13.417Z,100822.97
2022-08-28T06:55:44.144Z,100828.25
2022-08-28T06:58:15.963Z,100826.75
2022-08-28T07:00:46.100Z,100820.75
2022-08-28T07:03:17.727Z,100829.06
2022-08-28T07:05:47.872Z,100832.53
2022-08-28T07:08:18.358Z,100824.25
2022-08-28T07:10:49.262Z,100835.91
2022-08-28T07:13:21.267Z,100832.06
2022-08-28T07:15:52.102Z,100819.69
2022-08-28T07:18:22.425Z,100826.84
2022-08-28T07:20:58.998Z,100824.78
2022-08-28T07:23:31.491Z,100819.47
2022-08-28T07:26:06.065Z,100831.25
2022-08-28T07:28:39.575Z,100827.75
2022-08-28T07:31:12.178Z,100824.06
2022-08-28T07:33:44.439Z,100825.91
2022-08-28T07:36:29.006Z,100824.63
2022-08-28T07:39:02.337Z,100828.72
2022-08-28T07:41:37.758Z,100830.84
2022-08-28T07:44:28.706Z,100831.94
2022-08-28T07:47:01.953Z,100826.59
2022-08-28T07:49:34.905Z,100824.25
2022-08-28T07:52:05.888Z,100824.50
2022-08-28T07:54:37.486Z,100830.50
2022-08-28T07:57:08.974Z,100829.38
2022-08-28T07:59:43.177Z,100834.91
2022-08-28T08:02:21.423Z,100823.03
2022-08-28T08:04:55.117Z,100828.22
2022-08-28T08:07:25.238Z,100828.38
2022-08-28T08:09:59.408Z,100834.22
2022-08-28T08:12:30.901Z,100837.81
2022-08-28T08:15:02.809Z,100834.66
2022-08-28T08:17:36.845Z,100829.53
2022-08-28T08:20:08.969Z,100825.84
2022-08-28T08:22:39.477Z,100829.97
2022-08-28T08:25:10.678Z,100838.09
2022-08-28T08:27:43.022Z,100829.59
2022-08-28T08:30:14.709Z,100831.19
2022-08-28T08:32:47.413Z,100828.69
2022-08-28T08:35:18.737Z,100837.03
2022-08-28T08:37:50.627Z,100835.88
2022-08-28T08:40:22.006Z,100830.25
2022-08-28T08:42:55.926Z,100840.44
2022-08-28T08:45:28.460Z,100834.41
2022-08-28T08:48:03.768Z,100831.19
2022-08-28T08:50:41.533Z,100830.94
2022-08-28T08:53:31.031Z,100833.81
2022-08-28T08:56:03.656Z,100836.88
2022-08-28T08:58:38.931Z,100826.31
2022-08-28T09:01:18.849Z,100831.69
2022-08-28T09:03:59.621Z,100833.28
2022-08-28T09:06:43.050Z,100836.34
2022-08-28T09:09:19.859Z,100831.84
2022-08-28T09:11:57.507Z,100836.44
2022-08-28T09:14:38.494Z,100830.09
2022-08-28T09:17:15.144Z,100835.66
2022-08-28T09:19:46.760Z,100837.88
2022-08-28T09:22:17.555Z,100836.25
2022-08-28T09:24:47.437Z,100833.53
2022-08-28T09:27:28.876Z,100832.13
2022-08-28T09:30:07.410Z,100824.16
2022-08-28T09:32:41.847Z,100836.25
2022-08-28T09:35:19.304Z,100836.78
2022-08-28T09:37:49.756Z,100830.34
2022-08-28T09:40:26.601Z,100832.75
2022-08-28T09:43:21.436Z,100827.78
2022-08-28T09:45:59.791Z,100825.19
2022-08-28T09:48:37.195Z,100830.41
2022-08-28T09:51:11.205Z,100836.09
2022-08-28T09:54:01.661Z,100832.41
2022-08-28T09:56:34.578Z,100832.47
2022-08-28T09:59:09.259Z,100831.94
2022-08-28T10:01:50.200Z,100840.88
2022-08-28T10:04:44.666Z,100826.50
2022-08-28T10:07:25.027Z,100828.22
2022-08-28T10:10:17.333Z,100830.06
2022-08-28T10:13:02.443Z,100826.41
2022-08-28T10:15:55.754Z,100820.28
2022-08-28T10:18:39.498Z,100820.28
2022-08-28T10:21:19.167Z,100826.19
2022-08-28T10:24:07.549Z,100819.41
2022-08-28T10:26:45.219Z,100821.66
2022-08-28T10:29:36.598Z,100813.28
2022-08-28T10:32:22.799Z,100820.66
2022-08-28T10:35:05.320Z,100828.44
2022-08-28T10:37:48.359Z,100828.19
2022-08-28T10:40:26.148Z,100825.44
2022-08-28T10:43:02.309Z,100822.81
2022-08-28T10:45:34.688Z,100826.03
2022-08-28T10:48:12.051Z,100825.34
2022-08-28T10:50:45.597Z,100827.66
2022-08-28T10:53:19.732Z,100823.63
2022-08-28T10:56:00.407Z,100821.31
2022-08-28T10:58:32.280Z,100823.88
2022-08-28T11:01:07.800Z,100828.50
2022-08-28T11:03:46.239Z,100828.81
2022-08-28T11:06:24.819Z,100823.78
2022-08-28T11:08:58.579Z,100822.19
2022-08-28T11:11:46.917Z,100821.75
2022-08-28T11:14:27.230Z,100825.91
2022-08-28T11:17:00.264Z,100829.09
2022-08-28T11:20:08.319Z,100832.53
2022-08-28T11:22:43.125Z,100814.66
2022-08-28T11:25:26.617Z,100832.97
2022-08-28T11:28:41.438Z,100829.88
2022-08-28T11:31:32.241Z,100822.66
2022-08-28T11:34:03.339Z,100825.25
2022-08-28T11:37:02.989Z,100828.97
2022-08-28T11:39:33.118Z,100835.16
2022-08-28T11:42:24.238Z,100833.56
2022-08-28T11:44:56.558Z,100832.84
2022-08-28T11:47:52.589Z,100838.22
2022-08-28T11:50:29.538Z,100830.38
2022-08-28T11:53:27.738Z,100838.50
2022-08-28T11:56:31.815Z,100837.81
2022-08-28T11:59:25.669Z,100842.19
2022-08-28T12:02:52.084Z,100838.59
2022-08-28T12:05:47.289Z,100844.22
2022-08-28T12:09:05.489Z,100849.28
2022-08-28T12:11:56.126Z,100844.66
2022-08-28T12:15:07.934Z,100857.31
2022-08-28T12:17:55.441Z,100852.28
2022-08-28T12:21:00.601Z,100852.97
2022-08-28T12:23:39.160Z,100854.75
2022-08-28T12:26:17.461Z,100858.53
2022-08-28T12:28:50.740Z,100863.53
2022-08-28T12:32:09.239Z,100864.53
2022-08-28T12:34:46.580Z,100877.72
2022-08-28T12:37:51.370Z,100860.75
2022-08-28T12:40:31.573Z,100862.88
2022-08-28T12:43:08.243Z,100865.97
2022-08-28T12:45:46.447Z,100861.00
2022-08-28T12:48:27.057Z,100871.53
2022-08-28T12:51:06.679Z,100861.69
2022-08-28T12:54:04.308Z,100856.69
2022-08-28T12:56:40.125Z,100858.38
2022-08-28T12:59:29.076Z,100854.38
2022-08-28T13:02:04.711Z,100865.81
2022-08-28T13:04:38.610Z,100863.94
2022-08-28T13:07:16.642Z,100871.34
2022-08-28T13:09:54.450Z,100880.97
2022-08-28T13:12:37.870Z,100877.72
2022-08-28T13:16:02.155Z,100886.34
2022-08-28T13:18:43.089Z,100889.34
2022-08-28T13:21:34.359Z,100887.44
2022-08-28T13:24:43.346Z,100901.94
2022-08-28T13:27:28.569Z,100914.81
2022-08-28T13:30:06.429Z,100915.56
2022-08-28T13:32:40.617Z,100920.28
2022-08-28T13:35:17.080Z,100919.28
2022-08-28T13:37:51.418Z,100913.44
2022-08-28T13:40:55.783Z,100913.13
2022-08-28T13:43:17.281Z,100905.59
2022-08-28T13:45:49.643Z,100897.63
2022-08-28T13:48:22.881Z,100891.38
2022-08-28T13:50:58.537Z,100894.16
2022-08-28T13:53:29.430Z,100899.00
2022-08-28T13:56:03.760Z,100907.59
2022-08-28T13:58:34.176Z,100915.69
2022-08-28T14:01:07.695Z,100919.78
2022-08-28T14:03:38.895Z,100923.50
2022-08-28T14:06:13.299Z,100914.22
2022-08-28T14:08:45.723Z,100908.09
2022-08-28T14:11:18.119Z,100897.47
2022-08-28T14:13:55.541Z,100902.81
2022-08-28T14:16:30.977Z,100908.03
2022-08-28T14:19:07.172Z,100902.16
2022-08-28T14:21:45.773Z,100907.16
2022-08-28T14:24:25.209Z,100903.41
2022-08-28T14:27:03.808Z,100897.91
2022-08-28T14:29:35.901Z,100894.19
2022-08-28T14:32:06.834Z,100902.88
2022-08-28T14:34:38.522Z,100905.25
2022-08-28T14:37:14.524Z,100913.81
2022-08-28T14:39:48.298Z,100922.34
2022-08-28T14:42:20.177Z,100927.94
2022-08-28T14:44:50.368Z,100924.81
2022-08-28T14:47:21.105Z,100911.81
2022-08-28T14:49:51.208Z,100915.47
2022-08-28T14:52:22.804Z,100915.63
2022-08-28T14:54:53.031Z,100910.63
2022-08-28T14:57:24.927Z,100906.72
2022-08-28T14:59:54.978Z,100908.00
2022-08-28T15:02:25.369Z,100907.13
2022-08-28T15:04:55.620Z,100908.69
2022-08-28T15:07:25.879Z,100910.91
2022-08-28T15:09:56.008Z,100904.69
2022-08-28T15:12:27.904Z,100897.22
2022-08-28T15:14:58.009Z,100899.25
2022-08-28T15:17:33.791Z,100907.81
2022-08-28T15:20:06.299Z,100909.00
2022-08-28T15:22:37.079Z,100906.53
2022-08-28T15:25:08.559Z,100912.03
2022-08-28T15:27:40.654Z,100904.81
2022-08-28T15:30:11.819Z,100904.41
2022-08-28T15:32:44.957Z,100912.78
2022-08-28T15:35:15.696Z,100912.34
2022-08-28T15:37:46.076Z,100914.75
2022-08-28T15:40:33.412Z,100906.59
2022-08-28T15:43:05.725Z,100910.38
2022-08-28T15:45:39.454Z,100905.41
2022-08-28T15:48:12.308Z,100906.69
2022-08-28T15:50:43.071Z,100911.69
2022-08-28T15:53:16.878Z,100915.50
2022-08-28T15:55:48.296Z,100909.50
2022-08-28T15:58:20.828Z,100911.22
2022-08-28T16:00:51.222Z,100909.63
2022-08-28T16:03:21.618Z,100911.78
2022-08-28T16:05:51.675Z,100878.91
2022-08-28T16:08:22.285Z,100916.44
2022-08-28T16:10:53.377Z,100911.59
2022-08-28T16:13:25.572Z,100915.19
2022-08-28T16:15:56.033Z,100924.59
2022-08-28T16:18:26.766Z,100933.78
2022-08-28T16:20:58.069Z,100940.16
2022-08-28T16:23:31.255Z,100936.25
2022-08-28T16:26:02.214Z,100939.53
2022-08-28T16:28:35.294Z,100938.28
2022-08-28T16:31:18.948Z,100939.56
2022-08-28T16:33:50.060Z,100940.56
2022-08-28T16:36:21.808Z,100950.19
2022-08-28T16:39:00.460Z,100945.63
2022-08-28T16:41:34.265Z,100949.78
2022-08-28T16:44:06.453Z,100951.56
2022-08-28T16:46:36.930Z,100956.91
2022-08-28T16:49:07.292Z,100967.06
2022-08-28T16:51:37.285Z,100973.84
2022-08-28T16:54:08.285Z,100968.25
2022-08-28T16:56:38.664Z,100968.44
2022-08-28T16:59:10.744Z,100971.78
2022-08-28T17:01:42.878Z,100971.03
2022-08-28T17:04:13.785Z,100975.22
2022-08-28T17:06:45.834Z,100975.03
2022-08-28T17:09:16.287Z,100983.16
2022-08-28T17:11:46.724Z,100977.22
2022-08-28T17:14:24.336Z,100975.16
2022-08-28T17:16:55.165Z,100986.31
2022-08-28T17:19:25.506Z,100980.06
2022-08-28T17:22:12.804Z,100979.47
2022-08-28T17:24:42.964Z,100985.06
2022-08-28T17:27:14.727Z,100983.03
2022-08-28T17:29:54.297Z,100983.41
2022-08-28T17:32:24.730Z,100987.00
2022-08-28T17:34:54.941Z,100986.84
2022-08-28T17:37:25.225Z,100988.16
2022-08-28T17:39:55.728Z,100991.13
2022-08-28T17:42:29.007Z,100984.59
2022-08-28T17:45:04.143Z,100990.97
2022-08-28T17:47:41.705Z,100995.28
2022-08-28T17:50:20.046Z,100995.28
2022-08-28T17:52:53.734Z,100990.78
2022-08-28T17:55:27.844Z,100999.56
2022-08-28T17:58:02.154Z,101000.84
2022-08-28T18:00:38.041Z,101006.13
2022-08-28T18:03:12.149Z,101004.47
2022-08-28T18:05:45.646Z,101009.16
2022-08-28T18:08:19.781Z,101017.09
2022-08-28T18:10:51.056Z,101009.56
2022-08-28T18:13:21.167Z,101017.69
2022-08-28T18:15:56.985Z,101009.91
2022-08-28T18:18:32.325Z,101018.41
2022-08-28T18:21:06.950Z,101022.88
2022-08-28T18:23:37.225Z,101026.63
2022-08-28T18:26:07.535Z,101028.69
2022-08-28T18:28:38.824Z,101037.66
2022-08-28T18:31:10.923Z,101039.09
2022-08-28T18:33:49.675Z,101039.25
2022-08-28T18:36:21.591Z,101040.13
2022-08-28T18:38:55.466Z,101041.72
2022-08-28T18:41:34.531Z,101037.78
2022-08-28T18:44:20.151Z,101035.22
2022-08-28T18:46:58.256Z,101045.34
2022-08-28T18:49:31.715Z,101045.72
2022-08-28T18:52:03.607Z,101050.09
2022-08-28T18:54:36.089Z,101040.06
2022-08-28T18:57:11.625Z,101046.28
2022-08-28T18:59:43.575Z,101047.00
2022-08-28T19:02:18.773Z,101046.59
2022-08-28T19:04:50.315Z,101044.13
2022-08-28T19:07:20.557Z,101038.72
2022-08-28T19:09:53.902Z,101038.41
2022-08-28T19:12:28.517Z,101034.94
2022-08-28T19:15:00.969Z,101035.16
2022-08-28T19:17:36.143Z,101040.78
2022-08-28T19:20:10.412Z,101046.28
2022-08-28T19:22:41.085Z,101040.88
2022-08-28T19:25:25.739Z,101042.88
2022-08-28T19:28:01.797Z,101040.22
2022-08-28T19:30:36.398Z,101047.75
2022-08-28T19:33:15.155Z,101046.66
2022-08-28T19:35:46.038Z,101045.22
2022-08-28T19:38:16.465Z,101058.63
2022-08-28T19:40:47.706Z,101043.47
2022-08-28T19:43:20.579Z,101057.69
2022-08-28T19:45:54.465Z,101062.09
2022-08-28T19:48:27.073Z,101064.94
2022-08-28T19:51:06.439Z,101060.41
2022-08-28T19:53:56.148Z,101061.38
2022-08-28T19:56:30.422Z,101070.72
2022-08-28T19:59:04.830Z,101064.44
2022-08-28T20:01:41.724Z,101065.53
2022-08-28T20:04:20.115Z,101064.06
2022-08-28T20:06:54.007Z,101069.69
2022-08-28T20:09:27.338Z,101074.22
2022-08-28T20:11:58.247Z,101070.44
2022-08-28T20:14:31.616Z,101073.19
2022-08-28T20:17:03.157Z,101069.94
2022-08-28T20:19:34.906Z,101070.81
2022-08-28T20:22:05.586Z,101060.19
2022-08-28T20:24:36.415Z,101061.94
2022-08-28T20:27:07.250Z,101065.66
2022-08-28T20:29:39.406Z,101064.72
2022-08-28T20:32:10.386Z,101069.22
2022-08-28T20:34:44.486Z,101071.06
2022-08-28T20:37:17.016Z,101063.38
2022-08-28T20:39:48.566Z,101071.56
2022-08-28T20:42:20.394Z,101067.97
2022-08-28T20:44:51.917Z,101072.50
2022-08-28T20:47:24.195Z,101076.28
2022-08-28T20:49:57.955Z,101075.34
2022-08-28T20:52:30.355Z,101065.50
2022-08-28T20:55:00.846Z,101073.53
2022-08-28T20:57:34.394Z,101068.19
2022-08-28T21:00:08.146Z,101065.50
2022-08-28T21:02:39.395Z,101060.97
2022-08-28T21:05:11.558Z,101053.78
2022-08-28T21:07:41.684Z,101051.03
2022-08-28T21:10:12.075Z,101059.09
2022-08-28T21:12:42.376Z,101057.56
2022-08-28T21:15:14.246Z,101054.22
2022-08-28T21:17:44.724Z,101051.97
2022-08-28T21:20:17.074Z,101059.19
2022-08-28T21:22:47.556Z,101053.94
2022-08-28T21:25:18.384Z,101055.25
2022-08-28T21:27:50.763Z,101064.31
2022-08-28T21:30:23.546Z,101076.88
2022-08-28T21:32:59.896Z,101077.66
2022-08-28T21:35:31.984Z,101074.19
2022-08-28T21:38:02.434Z,101074.09
2022-08-28T21:40:32.625Z,101080.38
2022-08-28T21:43:03.005Z,101078.34
2022-08-28T21:45:33.106Z,101087.94
2022-08-28T21:48:03.204Z,101088.00
2022-08-28T21:50:35.176Z,101080.75
2022-08-28T21:53:05.503Z,101099.63
2022-08-28T21:55:35.814Z,101119.19
2022-08-28T21:58:05.874Z,101126.31
2022-08-28T22:00:36.204Z,101136.31
2022-08-28T22:03:06.480Z,101140.69
2022-08-28T22:05:39.505Z,101148.47
2022-08-28T22:08:09.861Z,101145.66
2022-08-28T22:10:40.821Z,101144.72
2022-08-28T22:13:12.346Z,101151.84
2022-08-28T22:15:44.367Z,101144.56
2022-08-28T22:18:16.013Z,101148.16
2022-08-28T22:21:18.127Z,101144.63
2022-08-28T22:23:49.187Z,101143.84
2022-08-28T22:26:20.095Z,101145.66
2022-08-28T22:28:50.136Z,101131.31
2022-08-28T22:31:20.977Z,101142.22
2022-08-28T22:33:51.405Z,101141.34
2022-08-28T22:36:23.677Z,101102.78
2022-08-28T22:39:00.267Z,101136.91
2022-08-28T22:41:30.847Z,101135.53
2022-08-28T22:44:01.033Z,101140.25
2022-08-28T22:46:31.375Z,101133.09
2022-08-28T22:49:01.528Z,101134.97
2022-08-28T22:51:34.591Z,101134.09
2022-08-28T22:54:05.347Z,101137.91
2022-08-28T22:56:36.514Z,101132.56
2022-08-28T22:59:06.797Z,101126.28
2022-08-28T23:01:37.179Z,101124.56
2022-08-28T23:04:07.659Z,101126.25
2022-08-28T23:06:40.605Z,101143.56
2022-08-28T23:09:11.381Z,101145.44
2022-08-28T23:11:41.705Z,101161.31
2022-08-28T23:14:11.968Z,101158.72
2022-08-28T23:16:42.342Z,101165.03
2022-08-28T23:19:13.759Z,101162.53
2022-08-28T23:21:45.507Z,101172.44
2022-08-28T23:24:17.457Z,101170.03
2022-08-28T23:26:48.086Z,101168.09
2022-08-28T23:29:18.397Z,101166.53
2022-08-28T23:31:48.481Z,101125.38
2022-08-28T23:34:18.977Z,101167.22
2022-08-28T23:36:50.678Z,101171.66
2022-08-28T23:39:21.322Z,101168.28
2022-08-28T23:41:53.069Z,101166.72
2022-08-28T23:44:23.460Z,101160.47
2022-08-28T23:46:53.576Z,101159.59
2022-08-28T23:49:26.924Z,101150.84
2022-08-28T23:51:58.647Z,101149.16
2022-08-28T23:54:30.107Z,101142.22
2022-08-28T23:57:00.087Z,101139.88
2022-08-28T23:59:30.127Z,101124.66
